sensor_id;sensor_type;location;lat;lon;timestamp;temperature;humidity
18456;DHT22;9357;49.900;8.208;2022-11-18T00:00:44;9.70;99.90
18456;DHT22;9357;49.900;8.208;2022-11-18T00:02:16;9.70;99.90
18456;DHT22;9357;49.900;8.208;2022-11-18T00:03:49;9.70;99.90
18456;DHT22;9357;49.900;8.208;2022-11-18T00:05:21;9.80;99.90
18456;DHT22;9357;49.900;8.208;2022-11-18T00:06:54;9.80;99.90
18456;DHT22;9357;49.900;8.208;2022-11-18T00:08:28;9.70;99.90
18456;DHT22;9357;49.900;8.208;2022-11-18T00:10:00;9.70;99.90
18456;DHT22;9357;49.900;8.208;2022-11-18T00:11:33;9.70;99.90
18456;DHT22;9357;49.900;8.208;2022-11-18T00:13:23;9.70;99.90
18456;DHT22;9357;49.900;8.208;2022-11-18T00:15:14;9.60;99.90
18456;DHT22;9357;49.900;8.208;2022-11-18T00:16:48;9.60;99.90
18456;DHT22;9357;49.900;8.208;2022-11-18T00:18:20;9.60;99.90
18456;DHT22;9357;49.900;8.208;2022-11-18T00:19:53;9.60;99.90
18456;DHT22;9357;49.900;8.208;2022-11-18T00:21:26;9.60;99.90
18456;DHT22;9357;49.900;8.208;2022-11-18T00:22:58;9.50;99.90
18456;DHT22;9357;49.900;8.208;2022-11-18T00:24:32;9.50;99.90
18456;DHT22;9357;49.900;8.208;2022-11-18T00:26:07;9.50;99.90
18456;DHT22;9357;49.900;8.208;2022-11-18T00:27:40;9.50;99.90
18456;DHT22;9357;49.900;8.208;2022-11-18T00:29:13;9.50;99.90
18456;DHT22;9357;49.900;8.208;2022-11-18T00:30:45;9.50;99.90
18456;DHT22;9357;49.900;8.208;2022-11-18T00:32:18;9.40;99.90
18456;DHT22;9357;49.900;8.208;2022-11-18T00:33:51;9.40;99.90
18456;DHT22;9357;49.900;8.208;2022-11-18T00:35:22;9.40;99.90
18456;DHT22;9357;49.900;8.208;2022-11-18T00:36:55;9.40;99.90
18456;DHT22;9357;49.900;8.208;2022-11-18T00:38:28;9.40;99.90
18456;DHT22;9357;49.900;8.208;2022-11-18T00:40:02;9.40;99.90
18456;DHT22;9357;49.900;8.208;2022-11-18T00:41:34;9.40;99.90
18456;DHT22;9357;49.900;8.208;2022-11-18T00:43:25;9.40;99.90
18456;DHT22;9357;49.900;8.208;2022-11-18T00:44:57;9.30;99.90
18456;DHT22;9357;49.900;8.208;2022-11-18T00:46:29;9.40;99.90
18456;DHT22;9357;49.900;8.208;2022-11-18T00:48:02;9.40;99.90
18456;DHT22;9357;49.900;8.208;2022-11-18T00:49:34;9.30;99.90
18456;DHT22;9357;49.900;8.208;2022-11-18T00:51:09;9.40;99.90
18456;DHT22;9357;49.900;8.208;2022-11-18T00:52:43;9.40;99.90
18456;DHT22;9357;49.900;8.208;2022-11-18T00:54:16;9.30;99.90
18456;DHT22;9357;49.900;8.208;2022-11-18T00:55:50;9.30;99.90
18456;DHT22;9357;49.900;8.208;2022-11-18T00:57:23;9.30;99.90
18456;DHT22;9357;49.900;8.208;2022-11-18T00:58:56;9.40;99.90
18456;DHT22;9357;49.900;8.208;2022-11-18T01:00:28;9.40;99.90
18456;DHT22;9357;49.900;8.208;2022-11-18T01:02:01;9.30;99.90
18456;DHT22;9357;49.900;8.208;2022-11-18T01:03:34;9.30;99.90
18456;DHT22;9357;49.900;8.208;2022-11-18T01:05:06;9.30;99.90
18456;DHT22;9357;49.900;8.208;2022-11-18T01:06:40;9.30;99.90
18456;DHT22;9357;49.900;8.208;2022-11-18T01:08:12;9.30;99.90
18456;DHT22;9357;49.900;8.208;2022-11-18T01:09:45;9.30;99.90
18456;DHT22;9357;49.900;8.208;2022-11-18T01:11:19;9.20;99.90
18456;DHT22;9357;49.900;8.208;2022-11-18T01:13:21;9.20;99.90
18456;DHT22;9357;49.900;8.208;2022-11-18T01:14:54;9.20;99.90
18456;DHT22;9357;49.900;8.208;2022-11-18T01:16:27;9.20;99.90
18456;DHT22;9357;49.900;8.208;2022-11-18T01:18:01;9.20;99.90
18456;DHT22;9357;49.900;8.208;2022-11-18T01:19:34;9.20;99.90
18456;DHT22;9357;49.900;8.208;2022-11-18T01:21:07;9.20;99.90
18456;DHT22;9357;49.900;8.208;2022-11-18T01:22:39;9.20;99.90
18456;DHT22;9357;49.900;8.208;2022-11-18T01:24:12;9.20;99.90
18456;DHT22;9357;49.900;8.208;2022-11-18T01:25:47;9.20;99.90
18456;DHT22;9357;49.900;8.208;2022-11-18T01:27:21;9.20;99.90
18456;DHT22;9357;49.900;8.208;2022-11-18T01:28:55;9.20;99.90
18456;DHT22;9357;49.900;8.208;2022-11-18T01:30:27;9.30;99.90
18456;DHT22;9357;49.900;8.208;2022-11-18T01:32:00;9.30;99.90
18456;DHT22;9357;49.900;8.208;2022-11-18T01:33:53;9.30;99.90
18456;DHT22;9357;49.900;8.208;2022-11-18T01:35:25;9.40;99.90
18456;DHT22;9357;49.900;8.208;2022-11-18T01:36:58;9.40;99.90
18456;DHT22;9357;49.900;8.208;2022-11-18T01:38:30;9.40;99.90
18456;DHT22;9357;49.900;8.208;2022-11-18T01:40:04;9.40;99.90
18456;DHT22;9357;49.900;8.208;2022-11-18T01:41:37;9.40;99.90
18456;DHT22;9357;49.900;8.208;2022-11-18T01:43:12;9.40;99.90
18456;DHT22;9357;49.900;8.208;2022-11-18T01:45:04;9.40;99.90
18456;DHT22;9357;49.900;8.208;2022-11-18T01:46:40;9.40;99.90
18456;DHT22;9357;49.900;8.208;2022-11-18T01:48:15;9.40;99.90
18456;DHT22;9357;49.900;8.208;2022-11-18T01:49:51;9.40;99.90
18456;DHT22;9357;49.900;8.208;2022-11-18T01:51:28;9.40;99.90
18456;DHT22;9357;49.900;8.208;2022-11-18T01:53:04;9.40;99.90
18456;DHT22;9357;49.900;8.208;2022-11-18T01:54:42;9.30;99.90
18456;DHT22;9357;49.900;8.208;2022-11-18T01:56:21;9.40;99.90
18456;DHT22;9357;49.900;8.208;2022-11-18T01:58:00;9.30;99.90
18456;DHT22;9357;49.900;8.208;2022-11-18T01:59:38;9.40;99.90
18456;DHT22;9357;49.900;8.208;2022-11-18T02:01:12;9.40;99.90
18456;DHT22;9357;49.900;8.208;2022-11-18T02:02:45;9.30;99.90
18456;DHT22;9357;49.900;8.208;2022-11-18T02:04:18;9.30;99.90
18456;DHT22;9357;49.900;8.208;2022-11-18T02:05:51;9.40;99.90
18456;DHT22;9357;49.900;8.208;2022-11-18T02:07:25;9.40;99.90
18456;DHT22;9357;49.900;8.208;2022-11-18T02:08:57;9.30;99.90
18456;DHT22;9357;49.900;8.208;2022-11-18T02:10:30;9.40;99.90
18456;DHT22;9357;49.900;8.208;2022-11-18T02:12:04;9.40;99.90
18456;DHT22;9357;49.900;8.208;2022-11-18T02:13:36;9.40;99.90
18456;DHT22;9357;49.900;8.208;2022-11-18T02:15:11;9.40;99.90
18456;DHT22;9357;49.900;8.208;2022-11-18T02:16:59;9.40;99.90
18456;DHT22;9357;49.900;8.208;2022-11-18T02:18:39;9.50;99.90
18456;DHT22;9357;49.900;8.208;2022-11-18T02:20:29;9.50;99.90
18456;DHT22;9357;49.900;8.208;2022-11-18T02:22:14;9.50;99.90
18456;DHT22;9357;49.900;8.208;2022-11-18T02:24:11;9.50;99.90
18456;DHT22;9357;49.900;8.208;2022-11-18T02:26:04;9.40;99.90
18456;DHT22;9357;49.900;8.208;2022-11-18T02:28:13;9.50;99.90
18456;DHT22;9357;49.900;8.208;2022-11-18T02:29:55;9.40;99.90
18456;DHT22;9357;49.900;8.208;2022-11-18T02:31:33;9.40;99.90
18456;DHT22;9357;49.900;8.208;2022-11-18T02:33:08;9.40;99.90
18456;DHT22;9357;49.900;8.208;2022-11-18T02:34:48;9.40;99.90
18456;DHT22;9357;49.900;8.208;2022-11-18T02:36:24;9.30;99.90
18456;DHT22;9357;49.900;8.208;2022-11-18T02:38:02;9.30;99.90
18456;DHT22;9357;49.900;8.208;2022-11-18T02:39:40;9.30;99.90
18456;DHT22;9357;49.900;8.208;2022-11-18T02:41:18;9.20;99.90
18456;DHT22;9357;49.900;8.208;2022-11-18T02:42:54;9.30;99.90
18456;DHT22;9357;49.900;8.208;2022-11-18T02:44:30;9.30;99.90
18456;DHT22;9357;49.900;8.208;2022-11-18T02:46:06;9.30;99.90
18456;DHT22;9357;49.900;8.208;2022-11-18T02:47:42;9.30;99.90
18456;DHT22;9357;49.900;8.208;2022-11-18T02:49:20;9.30;99.90
18456;DHT22;9357;49.900;8.208;2022-11-18T02:50:54;9.30;99.90
18456;DHT22;9357;49.900;8.208;2022-11-18T02:52:27;9.20;99.90
18456;DHT22;9357;49.900;8.208;2022-11-18T02:54:03;9.20;99.90
18456;DHT22;9357;49.900;8.208;2022-11-18T02:55:37;9.20;99.90
18456;DHT22;9357;49.900;8.208;2022-11-18T02:57:12;9.20;99.90
18456;DHT22;9357;49.900;8.208;2022-11-18T02:58:46;9.20;99.90
18456;DHT22;9357;49.900;8.208;2022-11-18T03:00:19;9.20;99.90
18456;DHT22;9357;49.900;8.208;2022-11-18T03:01:53;9.10;99.90
18456;DHT22;9357;49.900;8.208;2022-11-18T03:03:27;9.10;99.90
18456;DHT22;9357;49.900;8.208;2022-11-18T03:05:00;9.10;99.90
18456;DHT22;9357;49.900;8.208;2022-11-18T03:06:35;9.10;99.90
18456;DHT22;9357;49.900;8.208;2022-11-18T03:08:12;9.10;99.90
18456;DHT22;9357;49.900;8.208;2022-11-18T03:09:50;9.10;99.90
18456;DHT22;9357;49.900;8.208;2022-11-18T03:11:27;9.10;99.90
18456;DHT22;9357;49.900;8.208;2022-11-18T03:13:04;9.10;99.90
18456;DHT22;9357;49.900;8.208;2022-11-18T03:14:48;9.20;99.90
18456;DHT22;9357;49.900;8.208;2022-11-18T03:16:25;9.20;99.90
18456;DHT22;9357;49.900;8.208;2022-11-18T03:18:10;9.20;99.90
18456;DHT22;9357;49.900;8.208;2022-11-18T03:19:55;9.20;99.90
18456;DHT22;9357;49.900;8.208;2022-11-18T03:21:33;9.20;99.90
18456;DHT22;9357;49.900;8.208;2022-11-18T03:23:13;9.20;99.90
18456;DHT22;9357;49.900;8.208;2022-11-18T03:24:51;9.20;99.90
18456;DHT22;9357;49.900;8.208;2022-11-18T03:26:29;9.20;99.90
18456;DHT22;9357;49.900;8.208;2022-11-18T03:28:08;9.20;99.90
18456;DHT22;9357;49.900;8.208;2022-11-18T03:29:44;9.20;99.90
18456;DHT22;9357;49.900;8.208;2022-11-18T03:31:21;9.20;99.90
18456;DHT22;9357;49.900;8.208;2022-11-18T03:32:57;9.20;99.90
18456;DHT22;9357;49.900;8.208;2022-11-18T03:34:34;9.20;99.90
18456;DHT22;9357;49.900;8.208;2022-11-18T03:36:11;9.30;99.90
18456;DHT22;9357;49.900;8.208;2022-11-18T03:37:46;9.20;99.90
18456;DHT22;9357;49.900;8.208;2022-11-18T03:39:22;9.20;99.90
18456;DHT22;9357;49.900;8.208;2022-11-18T03:40:59;9.30;99.90
18456;DHT22;9357;49.900;8.208;2022-11-18T03:42:36;9.30;99.90
18456;DHT22;9357;49.900;8.208;2022-11-18T03:44:12;9.20;99.90
18456;DHT22;9357;49.900;8.208;2022-11-18T03:45:51;9.20;99.90
18456;DHT22;9357;49.900;8.208;2022-11-18T03:47:30;9.20;99.90
18456;DHT22;9357;49.900;8.208;2022-11-18T03:49:04;9.30;99.90
18456;DHT22;9357;49.900;8.208;2022-11-18T03:50:43;9.20;99.90
18456;DHT22;9357;49.900;8.208;2022-11-18T03:52:20;9.20;99.90
18456;DHT22;9357;49.900;8.208;2022-11-18T03:53:56;9.20;99.90
18456;DHT22;9357;49.900;8.208;2022-11-18T03:55:35;9.30;99.90
18456;DHT22;9357;49.900;8.208;2022-11-18T03:57:12;9.20;99.90
18456;DHT22;9357;49.900;8.208;2022-11-18T03:58:49;9.30;99.90
18456;DHT22;9357;49.900;8.208;2022-11-18T04:00:27;9.20;99.90
18456;DHT22;9357;49.900;8.208;2022-11-18T04:02:05;9.20;99.90
18456;DHT22;9357;49.900;8.208;2022-11-18T04:03:40;9.20;99.90
18456;DHT22;9357;49.900;8.208;2022-11-18T04:05:15;9.30;99.90
18456;DHT22;9357;49.900;8.208;2022-11-18T04:06:52;9.30;99.90
18456;DHT22;9357;49.900;8.208;2022-11-18T04:08:28;9.30;99.90
18456;DHT22;9357;49.900;8.208;2022-11-18T04:10:09;9.30;99.90
18456;DHT22;9357;49.900;8.208;2022-11-18T04:11:45;9.30;99.90
18456;DHT22;9357;49.900;8.208;2022-11-18T04:13:35;9.40;99.90
18456;DHT22;9357;49.900;8.208;2022-11-18T04:15:09;9.40;99.90
18456;DHT22;9357;49.900;8.208;2022-11-18T04:16:43;9.30;99.90
18456;DHT22;9357;49.900;8.208;2022-11-18T04:18:16;9.40;99.90
18456;DHT22;9357;49.900;8.208;2022-11-18T04:19:49;9.30;99.90
18456;DHT22;9357;49.900;8.208;2022-11-18T04:21:21;9.30;99.90
18456;DHT22;9357;49.900;8.208;2022-11-18T04:22:55;9.40;99.90
18456;DHT22;9357;49.900;8.208;2022-11-18T04:24:28;9.30;99.90
18456;DHT22;9357;49.900;8.208;2022-11-18T04:26:01;9.40;99.90
18456;DHT22;9357;49.900;8.208;2022-11-18T04:27:34;9.30;99.90
18456;DHT22;9357;49.900;8.208;2022-11-18T04:29:06;9.30;99.90
18456;DHT22;9357;49.900;8.208;2022-11-18T04:30:38;9.30;99.90
18456;DHT22;9357;49.900;8.208;2022-11-18T04:32:11;9.30;99.90
18456;DHT22;9357;49.900;8.208;2022-11-18T04:33:44;9.30;99.90
18456;DHT22;9357;49.900;8.208;2022-11-18T04:35:16;9.30;99.90
18456;DHT22;9357;49.900;8.208;2022-11-18T04:36:48;9.30;99.90
18456;DHT22;9357;49.900;8.208;2022-11-18T04:38:22;9.40;99.90
18456;DHT22;9357;49.900;8.208;2022-11-18T04:39:55;9.30;99.90
18456;DHT22;9357;49.900;8.208;2022-11-18T04:41:27;9.40;99.90
18456;DHT22;9357;49.900;8.208;2022-11-18T04:43:14;9.40;99.90
18456;DHT22;9357;49.900;8.208;2022-11-18T04:44:46;9.40;99.90
18456;DHT22;9357;49.900;8.208;2022-11-18T04:46:19;9.40;99.90
18456;DHT22;9357;49.900;8.208;2022-11-18T04:47:53;9.40;99.90
18456;DHT22;9357;49.900;8.208;2022-11-18T04:49:34;9.40;99.90
18456;DHT22;9357;49.900;8.208;2022-11-18T04:51:07;9.40;99.90
18456;DHT22;9357;49.900;8.208;2022-11-18T04:52:39;9.40;99.90
18456;DHT22;9357;49.900;8.208;2022-11-18T04:54:13;9.40;99.90
18456;DHT22;9357;49.900;8.208;2022-11-18T04:55:45;9.40;99.90
18456;DHT22;9357;49.900;8.208;2022-11-18T04:57:18;9.40;99.90
18456;DHT22;9357;49.900;8.208;2022-11-18T04:58:50;9.30;99.90
18456;DHT22;9357;49.900;8.208;2022-11-18T05:00:23;9.30;99.90
18456;DHT22;9357;49.900;8.208;2022-11-18T05:01:56;9.30;99.90
18456;DHT22;9357;49.900;8.208;2022-11-18T05:03:31;9.30;99.90
18456;DHT22;9357;49.900;8.208;2022-11-18T05:05:04;9.30;99.90
18456;DHT22;9357;49.900;8.208;2022-11-18T05:06:37;9.30;99.90
18456;DHT22;9357;49.900;8.208;2022-11-18T05:08:09;9.30;99.90
18456;DHT22;9357;49.900;8.208;2022-11-18T05:09:43;9.30;99.90
18456;DHT22;9357;49.900;8.208;2022-11-18T05:11:16;9.30;99.90
18456;DHT22;9357;49.900;8.208;2022-11-18T05:13:06;9.30;99.90
18456;DHT22;9357;49.900;8.208;2022-11-18T05:14:38;9.30;99.90
18456;DHT22;9357;49.900;8.208;2022-11-18T05:16:17;9.30;99.90
18456;DHT22;9357;49.900;8.208;2022-11-18T05:17:50;9.30;99.90
18456;DHT22;9357;49.900;8.208;2022-11-18T05:19:23;9.30;99.90
18456;DHT22;9357;49.900;8.208;2022-11-18T05:20:55;9.40;99.90
18456;DHT22;9357;49.900;8.208;2022-11-18T05:22:27;9.40;99.90
18456;DHT22;9357;49.900;8.208;2022-11-18T05:24:00;9.40;99.90
18456;DHT22;9357;49.900;8.208;2022-11-18T05:25:34;9.40;99.90
18456;DHT22;9357;49.900;8.208;2022-11-18T05:27:07;9.40;99.90
18456;DHT22;9357;49.900;8.208;2022-11-18T05:28:40;9.40;99.90
18456;DHT22;9357;49.900;8.208;2022-11-18T05:30:13;9.40;99.90
18456;DHT22;9357;49.900;8.208;2022-11-18T05:31:46;9.40;99.90
18456;DHT22;9357;49.900;8.208;2022-11-18T05:33:18;9.40;99.90
18456;DHT22;9357;49.900;8.208;2022-11-18T05:34:51;9.40;99.90
18456;DHT22;9357;49.900;8.208;2022-11-18T05:36:24;9.40;99.90
18456;DHT22;9357;49.900;8.208;2022-11-18T05:37:57;9.50;99.90
18456;DHT22;9357;49.900;8.208;2022-11-18T05:39:30;9.50;99.90
18456;DHT22;9357;49.900;8.208;2022-11-18T05:41:06;9.50;99.90
18456;DHT22;9357;49.900;8.208;2022-11-18T05:42:38;9.50;99.90
18456;DHT22;9357;49.900;8.208;2022-11-18T05:44:29;9.50;99.90
18456;DHT22;9357;49.900;8.208;2022-11-18T05:46:01;9.50;99.90
18456;DHT22;9357;49.900;8.208;2022-11-18T05:47:34;9.50;99.90
18456;DHT22;9357;49.900;8.208;2022-11-18T05:49:26;9.50;99.90
18456;DHT22;9357;49.900;8.208;2022-11-18T05:50:59;9.50;99.90
18456;DHT22;9357;49.900;8.208;2022-11-18T05:52:32;9.50;99.90
18456;DHT22;9357;49.900;8.208;2022-11-18T05:54:07;9.50;99.90
18456;DHT22;9357;49.900;8.208;2022-11-18T05:55:45;9.50;99.90
18456;DHT22;9357;49.900;8.208;2022-11-18T05:57:20;9.50;99.90
18456;DHT22;9357;49.900;8.208;2022-11-18T05:58:53;9.50;99.90
18456;DHT22;9357;49.900;8.208;2022-11-18T06:00:26;9.40;99.90
18456;DHT22;9357;49.900;8.208;2022-11-18T06:02:00;9.40;99.90
18456;DHT22;9357;49.900;8.208;2022-11-18T06:03:36;9.40;99.90
18456;DHT22;9357;49.900;8.208;2022-11-18T06:05:10;9.40;99.90
18456;DHT22;9357;49.900;8.208;2022-11-18T06:06:44;9.30;99.90
18456;DHT22;9357;49.900;8.208;2022-11-18T06:08:18;9.30;99.90
18456;DHT22;9357;49.900;8.208;2022-11-18T06:09:58;9.40;99.90
18456;DHT22;9357;49.900;8.208;2022-11-18T06:11:38;9.40;99.90
18456;DHT22;9357;49.900;8.208;2022-11-18T06:13:16;9.30;99.90
18456;DHT22;9357;49.900;8.208;2022-11-18T06:14:51;9.30;99.90
18456;DHT22;9357;49.900;8.208;2022-11-18T06:16:28;9.30;99.90
18456;DHT22;9357;49.900;8.208;2022-11-18T06:18:11;9.30;99.90
18456;DHT22;9357;49.900;8.208;2022-11-18T06:19:47;9.30;99.90
18456;DHT22;9357;49.900;8.208;2022-11-18T06:21:20;9.30;99.90
18456;DHT22;9357;49.900;8.208;2022-11-18T06:22:55;9.30;99.90
18456;DHT22;9357;49.900;8.208;2022-11-18T06:24:28;9.30;99.90
18456;DHT22;9357;49.900;8.208;2022-11-18T06:26:01;9.30;99.90
18456;DHT22;9357;49.900;8.208;2022-11-18T06:27:34;9.30;99.90
18456;DHT22;9357;49.900;8.208;2022-11-18T06:29:11;9.30;99.90
18456;DHT22;9357;49.900;8.208;2022-11-18T06:30:44;9.30;99.90
18456;DHT22;9357;49.900;8.208;2022-11-18T06:32:17;9.30;99.90
18456;DHT22;9357;49.900;8.208;2022-11-18T06:33:49;9.30;99.90
18456;DHT22;9357;49.900;8.208;2022-11-18T06:35:22;9.30;99.90
18456;DHT22;9357;49.900;8.208;2022-11-18T06:36:55;9.30;99.90
18456;DHT22;9357;49.900;8.208;2022-11-18T06:38:28;9.30;99.90
18456;DHT22;9357;49.900;8.208;2022-11-18T06:40:01;9.30;99.90
18456;DHT22;9357;49.900;8.208;2022-11-18T06:41:34;9.30;99.90
18456;DHT22;9357;49.900;8.208;2022-11-18T06:43:07;9.30;99.90
18456;DHT22;9357;49.900;8.208;2022-11-18T06:44:59;9.30;99.90
18456;DHT22;9357;49.900;8.208;2022-11-18T06:46:32;9.30;99.90
18456;DHT22;9357;49.900;8.208;2022-11-18T06:48:22;9.30;99.90
18456;DHT22;9357;49.900;8.208;2022-11-18T06:49:55;9.20;99.90
18456;DHT22;9357;49.900;8.208;2022-11-18T06:51:28;9.20;99.90
18456;DHT22;9357;49.900;8.208;2022-11-18T06:53:01;9.20;99.90
18456;DHT22;9357;49.900;8.208;2022-11-18T06:54:34;9.20;99.90
18456;DHT22;9357;49.900;8.208;2022-11-18T06:56:09;9.20;99.90
18456;DHT22;9357;49.900;8.208;2022-11-18T06:57:41;9.20;99.90
18456;DHT22;9357;49.900;8.208;2022-11-18T06:59:14;9.20;99.90
18456;DHT22;9357;49.900;8.208;2022-11-18T07:00:53;9.20;99.90
18456;DHT22;9357;49.900;8.208;2022-11-18T07:02:27;9.20;99.90
18456;DHT22;9357;49.900;8.208;2022-11-18T07:04:00;9.20;99.90
18456;DHT22;9357;49.900;8.208;2022-11-18T07:05:33;9.20;99.90
18456;DHT22;9357;49.900;8.208;2022-11-18T07:07:06;9.20;99.90
18456;DHT22;9357;49.900;8.208;2022-11-18T07:08:40;9.30;99.90
18456;DHT22;9357;49.900;8.208;2022-11-18T07:10:13;9.30;99.90
18456;DHT22;9357;49.900;8.208;2022-11-18T07:11:46;9.30;99.90
18456;DHT22;9357;49.900;8.208;2022-11-18T07:13:19;9.30;99.90
18456;DHT22;9357;49.900;8.208;2022-11-18T07:14:50;9.30;99.90
18456;DHT22;9357;49.900;8.208;2022-11-18T07:16:25;9.30;99.90
18456;DHT22;9357;49.900;8.208;2022-11-18T07:17:58;9.20;99.90
18456;DHT22;9357;49.900;8.208;2022-11-18T07:19:31;9.20;99.90
18456;DHT22;9357;49.900;8.208;2022-11-18T07:21:08;9.20;99.90
18456;DHT22;9357;49.900;8.208;2022-11-18T07:22:41;9.20;99.90
18456;DHT22;9357;49.900;8.208;2022-11-18T07:24:14;9.20;99.90
18456;DHT22;9357;49.900;8.208;2022-11-18T07:25:47;9.20;99.90
18456;DHT22;9357;49.900;8.208;2022-11-18T07:27:20;9.20;99.90
18456;DHT22;9357;49.900;8.208;2022-11-18T07:28:53;9.20;99.90
18456;DHT22;9357;49.900;8.208;2022-11-18T07:30:25;9.20;99.90
18456;DHT22;9357;49.900;8.208;2022-11-18T07:32:00;9.20;99.90
18456;DHT22;9357;49.900;8.208;2022-11-18T07:33:33;9.20;99.90
18456;DHT22;9357;49.900;8.208;2022-11-18T07:35:06;9.20;99.90
18456;DHT22;9357;49.900;8.208;2022-11-18T07:36:39;9.20;99.90
18456;DHT22;9357;49.900;8.208;2022-11-18T07:38:12;9.20;99.90
18456;DHT22;9357;49.900;8.208;2022-11-18T07:39:45;9.30;99.90
18456;DHT22;9357;49.900;8.208;2022-11-18T07:41:19;9.30;99.90
18456;DHT22;9357;49.900;8.208;2022-11-18T07:42:52;9.30;99.90
18456;DHT22;9357;49.900;8.208;2022-11-18T07:44:25;9.30;99.90
18456;DHT22;9357;49.900;8.208;2022-11-18T07:45:58;9.30;99.90
18456;DHT22;9357;49.900;8.208;2022-11-18T07:47:34;9.30;99.90
18456;DHT22;9357;49.900;8.208;2022-11-18T07:49:07;9.30;99.90
18456;DHT22;9357;49.900;8.208;2022-11-18T07:50:40;9.30;99.90
18456;DHT22;9357;49.900;8.208;2022-11-18T07:52:17;9.30;99.90
18456;DHT22;9357;49.900;8.208;2022-11-18T07:53:50;9.30;99.90
18456;DHT22;9357;49.900;8.208;2022-11-18T07:55:23;9.30;99.90
18456;DHT22;9357;49.900;8.208;2022-11-18T07:57:02;9.30;99.90
18456;DHT22;9357;49.900;8.208;2022-11-18T07:58:36;9.30;99.90
18456;DHT22;9357;49.900;8.208;2022-11-18T08:00:10;9.30;99.90
18456;DHT22;9357;49.900;8.208;2022-11-18T08:01:42;9.30;99.90
18456;DHT22;9357;49.900;8.208;2022-11-18T08:03:17;9.30;99.90
18456;DHT22;9357;49.900;8.208;2022-11-18T08:04:49;9.30;99.90
18456;DHT22;9357;49.900;8.208;2022-11-18T08:06:22;9.30;99.90
18456;DHT22;9357;49.900;8.208;2022-11-18T08:07:55;9.30;99.90
18456;DHT22;9357;49.900;8.208;2022-11-18T08:09:28;9.30;99.90
18456;DHT22;9357;49.900;8.208;2022-11-18T08:11:03;9.30;99.90
18456;DHT22;9357;49.900;8.208;2022-11-18T08:12:36;9.30;99.90
18456;DHT22;9357;49.900;8.208;2022-11-18T08:14:09;9.30;99.90
18456;DHT22;9357;49.900;8.208;2022-11-18T08:15:42;9.30;99.90
18456;DHT22;9357;49.900;8.208;2022-11-18T08:17:15;9.30;99.90
18456;DHT22;9357;49.900;8.208;2022-11-18T08:18:49;9.30;99.90
18456;DHT22;9357;49.900;8.208;2022-11-18T08:20:22;9.30;99.90
18456;DHT22;9357;49.900;8.208;2022-11-18T08:21:57;9.30;99.90
18456;DHT22;9357;49.900;8.208;2022-11-18T08:23:30;9.40;99.90
18456;DHT22;9357;49.900;8.208;2022-11-18T08:25:11;9.40;99.90
18456;DHT22;9357;49.900;8.208;2022-11-18T08:26:44;9.30;99.90
18456;DHT22;9357;49.900;8.208;2022-11-18T08:28:16;9.40;99.90
18456;DHT22;9357;49.900;8.208;2022-11-18T08:29:49;9.40;99.90
18456;DHT22;9357;49.900;8.208;2022-11-18T08:31:24;9.40;99.90
18456;DHT22;9357;49.900;8.208;2022-11-18T08:32:57;9.40;99.90
18456;DHT22;9357;49.900;8.208;2022-11-18T08:34:32;9.40;99.90
18456;DHT22;9357;49.900;8.208;2022-11-18T08:36:06;9.40;99.90
18456;DHT22;9357;49.900;8.208;2022-11-18T08:37:39;9.40;99.90
18456;DHT22;9357;49.900;8.208;2022-11-18T08:39:11;9.40;99.90
18456;DHT22;9357;49.900;8.208;2022-11-18T08:40:46;9.40;99.90
18456;DHT22;9357;49.900;8.208;2022-11-18T08:42:19;9.40;99.90
18456;DHT22;9357;49.900;8.208;2022-11-18T08:43:55;9.40;99.90
18456;DHT22;9357;49.900;8.208;2022-11-18T08:45:27;9.40;99.90
18456;DHT22;9357;49.900;8.208;2022-11-18T08:47:00;9.40;99.90
18456;DHT22;9357;49.900;8.208;2022-11-18T08:48:33;9.40;99.90
18456;DHT22;9357;49.900;8.208;2022-11-18T08:50:09;9.40;99.90
18456;DHT22;9357;49.900;8.208;2022-11-18T08:51:42;9.40;99.90
18456;DHT22;9357;49.900;8.208;2022-11-18T08:53:15;9.40;99.90
18456;DHT22;9357;49.900;8.208;2022-11-18T08:54:48;9.40;99.90
18456;DHT22;9357;49.900;8.208;2022-11-18T08:56:22;9.50;99.90
18456;DHT22;9357;49.900;8.208;2022-11-18T08:57:55;9.50;99.90
18456;DHT22;9357;49.900;8.208;2022-11-18T08:59:28;9.50;99.90
18456;DHT22;9357;49.900;8.208;2022-11-18T09:01:03;9.50;99.90
18456;DHT22;9357;49.900;8.208;2022-11-18T09:02:36;9.50;99.90
18456;DHT22;9357;49.900;8.208;2022-11-18T09:04:09;9.50;99.90
18456;DHT22;9357;49.900;8.208;2022-11-18T09:05:44;9.50;99.90
18456;DHT22;9357;49.900;8.208;2022-11-18T09:07:16;9.50;99.90
18456;DHT22;9357;49.900;8.208;2022-11-18T09:08:50;9.50;99.90
18456;DHT22;9357;49.900;8.208;2022-11-18T09:10:22;9.60;99.90
18456;DHT22;9357;49.900;8.208;2022-11-18T09:11:55;9.60;99.90
18456;DHT22;9357;49.900;8.208;2022-11-18T09:13:28;9.60;99.90
18456;DHT22;9357;49.900;8.208;2022-11-18T09:15:20;9.60;99.90
18456;DHT22;9357;49.900;8.208;2022-11-18T09:16:54;9.70;99.90
18456;DHT22;9357;49.900;8.208;2022-11-18T09:18:27;9.70;99.90
18456;DHT22;9357;49.900;8.208;2022-11-18T09:20:00;9.70;99.90
18456;DHT22;9357;49.900;8.208;2022-11-18T09:21:34;9.70;99.90
18456;DHT22;9357;49.900;8.208;2022-11-18T09:23:11;9.70;99.90
18456;DHT22;9357;49.900;8.208;2022-11-18T09:24:44;9.80;99.90
18456;DHT22;9357;49.900;8.208;2022-11-18T09:26:18;9.80;99.90
18456;DHT22;9357;49.900;8.208;2022-11-18T09:27:53;9.80;99.90
18456;DHT22;9357;49.900;8.208;2022-11-18T09:29:26;9.80;99.90
18456;DHT22;9357;49.900;8.208;2022-11-18T09:31:02;9.80;99.90
18456;DHT22;9357;49.900;8.208;2022-11-18T09:32:34;9.80;99.90
18456;DHT22;9357;49.900;8.208;2022-11-18T09:34:07;9.90;99.90
18456;DHT22;9357;49.900;8.208;2022-11-18T09:35:41;9.90;99.90
18456;DHT22;9357;49.900;8.208;2022-11-18T09:37:15;9.90;99.90
18456;DHT22;9357;49.900;8.208;2022-11-18T09:38:47;9.90;99.90
18456;DHT22;9357;49.900;8.208;2022-11-18T09:40:24;10.00;99.90
18456;DHT22;9357;49.900;8.208;2022-11-18T09:42:09;10.00;99.90
18456;DHT22;9357;49.900;8.208;2022-11-18T09:43:53;10.00;99.90
18456;DHT22;9357;49.900;8.208;2022-11-18T09:45:33;10.00;99.90
18456;DHT22;9357;49.900;8.208;2022-11-18T09:47:18;10.00;99.90
18456;DHT22;9357;49.900;8.208;2022-11-18T09:48:55;10.10;99.90
18456;DHT22;9357;49.900;8.208;2022-11-18T09:50:44;10.10;99.90
18456;DHT22;9357;49.900;8.208;2022-11-18T09:52:26;10.10;99.90
18456;DHT22;9357;49.900;8.208;2022-11-18T09:54:10;10.10;99.90
18456;DHT22;9357;49.900;8.208;2022-11-18T09:55:44;10.10;99.90
18456;DHT22;9357;49.900;8.208;2022-11-18T09:57:19;10.10;99.90
18456;DHT22;9357;49.900;8.208;2022-11-18T09:58:52;10.10;99.90
18456;DHT22;9357;49.900;8.208;2022-11-18T10:00:28;10.10;99.90
18456;DHT22;9357;49.900;8.208;2022-11-18T10:02:19;10.10;99.90
18456;DHT22;9357;49.900;8.208;2022-11-18T10:03:54;10.10;99.90
18456;DHT22;9357;49.900;8.208;2022-11-18T10:05:28;10.20;99.90
18456;DHT22;9357;49.900;8.208;2022-11-18T10:07:06;10.20;99.90
18456;DHT22;9357;49.900;8.208;2022-11-18T10:08:56;10.20;99.90
18456;DHT22;9357;49.900;8.208;2022-11-18T10:10:37;10.20;99.90
18456;DHT22;9357;49.900;8.208;2022-11-18T10:12:21;10.20;99.90
18456;DHT22;9357;49.900;8.208;2022-11-18T10:14:02;10.20;99.90
18456;DHT22;9357;49.900;8.208;2022-11-18T10:15:46;10.30;99.90
18456;DHT22;9357;49.900;8.208;2022-11-18T10:17:34;10.20;99.90
18456;DHT22;9357;49.900;8.208;2022-11-18T10:19:19;10.30;99.90
18456;DHT22;9357;49.900;8.208;2022-11-18T10:20:59;10.30;99.90
18456;DHT22;9357;49.900;8.208;2022-11-18T10:22:40;10.30;99.90